Time,TemperatureF,DewpointF,PressureIn,WindDirection,WindDirectionDegrees,WindSpeedMPH,WindSpeedGustMPH,Humidity,HourlyPrecipIn,Conditions,Clouds,dailyrainin,SolarRadiationWatts/m^2,SoftwareType,DateUTC
2013-04-02 00:00:00,36.7,14.6,29.98,NE,51,3.5,4.6,40,0.00,CLR,SCT,0.00,0.0,WeatherDisplay:10.37,2013-04-02 06:00:00,
2013-04-02 00:05:00,36.1,14.6,29.98,NE,51,6.7,8.1,41,0.00,CLR,SCT,0.00,0.0,WeatherDisplay:10.37,2013-04-02 06:05:00,
2013-04-02 00:10:00,35.7,14.8,29.98,NE,55,3.2,6.9,42,0.00,CLR,SCT,0.00,0.0,WeatherDisplay:10.37,2013-04-02 06:10:00,
2013-04-02 00:15:00,35.9,15.0,29.98,NE,52,5.4,8.1,42,0.00,CLR,SCT,0.00,0.0,WeatherDisplay:10.37,2013-04-02 06:15:00,
2013-04-02 00:20:00,35.9,15.0,29.98,ENE,57,6.3,9.2,42,0.00,CLR,SCT,0.00,0.0,WeatherDisplay:10.37,2013-04-02 06:20:00,
2013-04-02 00:25:00,36.3,14.8,29.98,NE,53,5.2,8.0,41,0.00,CLR,SCT,0.00,0.0,WeatherDisplay:10.37,2013-04-02 06:25:00,
2013-04-02 00:30:00,37.3,14.6,29.98,NE,56,4.6,7.0,39,0.00,CLR,SCT,0.00,0.0,WeatherDisplay:10.37,2013-04-02 06:30:00,
2013-04-02 00:35:00,38.4,15.0,29.99,NE,43,5.4,8.1,38,0.00,CLR,SCT,0.00,0.0,WeatherDisplay:10.37,2013-04-02 06:35:00,
2013-04-02 00:40:00,38.2,14.8,29.98,ENE,73,5.6,8.1,38,0.00,CLR,SCT,0.00,0.0,WeatherDisplay:10.37,2013-04-02 06:40:00,
2013-04-02 00:45:00,38.9,14.8,29.98,NE,46,2.3,3.5,37,0.00,CLR,SCT,0.00,0.0,WeatherDisplay:10.37,2013-04-02 06:45:00,
2013-04-02 00:50:00,38.8,14.7,29.99,NE,55,5.7,7.0,37,0.00,CLR,SCT,0.00,0.0,WeatherDisplay:10.37,2013-04-02 06:50:00,
2013-04-02 00:55:00,36.9,14.2,29.99,NE,53,7.9,8.1,39,0.00,CLR,SCT,0.00,0.0,WeatherDisplay:10.37,2013-04-02 06:55:00,
2013-04-02 01:00:00,35.1,14.3,29.99,NE,42,6.8,8.1,42,0.00,CLR,SCT,0.00,0.0,WeatherDisplay:10.37,2013-04-02 07:00:00,
2013-04-02 01:05:00,34.5,14.3,29.99,NE,51,4.1,5.0,43,0.00,CLR,SCT,0.00,0.0,WeatherDisplay:10.37,2013-04-02 07:05:00,
2013-04-02 01:10:00,34.4,14.2,29.99,NE,46,3.3,4.6,43,0.00,CLR,SCT,0.00,0.0,WeatherDisplay:10.37,2013-04-02 07:10:00,
2013-04-02 01:15:00,34.7,14.5,29.99,NE,56,4.6,5.8,43,0.00,CLR,SCT,0.00,0.0,WeatherDisplay:10.37,2013-04-02 07:15:00,
2013-04-02 01:20:00,34.3,14.1,29.99,NE,53,4.2,5.0,43,0.00,CLR,SCT,0.00,0.0,WeatherDisplay:10.37,2013-04-02 07:20:00,
2013-04-02 01:25:00,34.3,14.1,29.99,ENE,65,2.5,4.0,43,0.00,CLR,SCT,0.00,0.0,WeatherDisplay:10.37,2013-04-02 07:25:00,
2013-04-02 01:30:00,35.6,13.6,29.99,SE,128,0.6,2.0,40,0.00,CLR,SCT,0.00,0.0,WeatherDisplay:10.37,2013-04-02 07:30:00,
2013-04-02 01:35:00,36.9,14.2,29.99,East,87,0.1,1.1,39,0.00,CLR,SCT,0.00,0.0,WeatherDisplay:10.37,2013-04-02 07:35:00,
2013-04-02 01:40:00,36.3,13.7,29.99,ESE,104,0.2,3.5,39,0.00,CLR,SCT,0.00,0.0,WeatherDisplay:10.37,2013-04-02 07:40:00,
2013-04-02 01:45:00,35.7,13.7,29.99,ESE,113,1.0,2.0,40,0.00,CLR,SCT,0.00,0.0,WeatherDisplay:10.37,2013-04-02 07:45:00,
2013-04-02 01:50:00,34.6,13.8,29.99,ENE,74,2.1,5.0,42,0.00,CLR,SCT,0.00,0.0,WeatherDisplay:10.37,2013-04-02 07:50:00,
2013-04-02 01:55:00,33.4,13.8,29.99,ENE,67,0.5,2.3,44,0.00,CLR,SCT,0.00,0.0,WeatherDisplay:10.37,2013-04-02 07:55:00,
2013-04-02 02:00:00,34.3,12.4,29.99,SE,125,1.6,3.5,40,0.00,CLR,SCT,0.00,0.0,WeatherDisplay:10.37,2013-04-02 08:00:00,
2013-04-02 02:05:00,39.0,13.0,29.99,SE,126,2.0,3.5,34,0.00,CLR,SCT,0.00,0.0,WeatherDisplay:10.37,2013-04-02 08:05:00,
2013-04-02 02:10:00,41.3,12.1,29.99,SSE,162,4.1,6.0,30,0.00,CLR,SCT,0.00,0.0,WeatherDisplay:10.37,2013-04-02 08:10:00,
2013-04-02 02:15:00,42.5,12.4,29.99,South,169,1.7,3.5,29,0.00,CLR,SCT,0.00,0.0,WeatherDisplay:10.37,2013-04-02 08:15:00,
2013-04-02 02:20:00,43.1,12.2,29.99,SE,140,3.7,5.8,28,0.00,CLR,SCT,0.00,0.0,WeatherDisplay:10.37,2013-04-02 08:20:00,
2013-04-02 02:25:00,43.4,12.4,29.98,SSE,153,1.0,3.5,28,0.00,CLR,SCT,0.00,0.0,WeatherDisplay:10.37,2013-04-02 08:25:00,
2013-04-02 02:30:00,43.5,11.7,29.98,SSE,148,4.6,7.0,27,0.00,CLR,SCT,0.00,0.0,WeatherDisplay:10.37,2013-04-02 08:30:00,
2013-04-02 02:35:00,43.9,12.0,29.98,SE,134,2.2,5.8,27,0.00,CLR,SCT,0.00,0.0,WeatherDisplay:10.37,2013-04-02 08:35:00,
2013-04-02 02:40:00,40.1,12.6,29.98,NE,46,3.4,6.0,32,0.00,CLR,SCT,0.00,0.0,WeatherDisplay:10.37,2013-04-02 08:40:00,
2013-04-02 02:45:00,36.6,12.1,29.98,NE,34,2.9,4.0,36,0.00,CLR,SCT,0.00,0.0,WeatherDisplay:10.37,2013-04-02 08:45:00,
2013-04-02 02:50:00,35.6,12.5,29.98,ENE,61,2.1,3.5,38,0.00,CLR,SCT,0.00,0.0,WeatherDisplay:10.37,2013-04-02 08:50:00,
2013-04-02 02:55:00,34.8,12.9,29.98,NE,41,5.3,6.0,40,0.00,CLR,SCT,0.00,0.0,WeatherDisplay:10.37,2013-04-02 08:55:00,
2013-04-02 03:00:00,33.7,13.0,29.96,NE,38,5.5,6.9,42,0.00,CLR,SCT,0.00,0.0,WeatherDisplay:10.37,2013-04-02 09:00:00,
2013-04-02 03:05:00,32.7,12.6,29.96,NE,38,4.5,6.9,43,0.00,CLR,SCT,0.00,0.0,WeatherDisplay:10.37,2013-04-02 09:05:00,
2013-04-02 03:10:00,31.7,12.8,29.97,NE,55,3.5,5.8,45,0.00,CLR,SCT,0.00,0.0,WeatherDisplay:10.37,2013-04-02 09:10:00,
2013-04-02 03:15:00,31.4,13.0,29.97,NE,51,3.8,4.6,46,0.00,CLR,SCT,0.00,0.0,WeatherDisplay:10.37,2013-04-02 09:15:00,
2013-04-02 03:20:00,31.9,13.4,29.97,NE,41,2.6,3.5,46,0.00,CLR,SCT,0.00,0.0,WeatherDisplay:10.37,2013-04-02 09:20:00,
2013-04-02 03:25:00,31.7,13.3,29.97,NE,56,4.7,6.9,46,0.00,CLR,SCT,0.00,0.0,WeatherDisplay:10.37,2013-04-02 09:25:00,
2013-04-02 03:30:00,31.9,13.4,29.97,ENE,65,3.1,6.9,46,0.00,CLR,SCT,0.00,0.0,WeatherDisplay:10.37,2013-04-02 09:30:00,
2013-04-02 03:35:00,32.6,13.6,29.97,NE,36,4.1,6.9,45,0.00,CLR,SCT,0.00,0.0,WeatherDisplay:10.37,2013-04-02 09:35:00,
2013-04-02 03:40:00,32.2,13.7,29.97,ENE,73,3.4,8.1,46,0.00,CLR,SCT,0.00,0.0,WeatherDisplay:10.37,2013-04-02 09:40:00,
2013-04-02 03:45:00,31.6,13.7,29.97,NE,51,5.1,6.0,47,0.00,CLR,SCT,0.00,0.0,WeatherDisplay:10.37,2013-04-02 09:45:00,
2013-04-02 03:50:00,31.1,13.7,29.97,NE,45,1.9,3.5,48,0.00,CLR,SCT,0.00,0.0,WeatherDisplay:10.37,2013-04-02 09:50:00,
2013-04-02 03:55:00,30.7,13.8,29.97,NE,46,5.0,5.8,49,0.00,CLR,SCT,0.00,0.0,WeatherDisplay:10.37,2013-04-02 09:55:00,
2013-04-02 04:00:00,30.0,13.6,29.98,NE,48,5.9,7.0,50,0.00,CLR,SCT,0.00,0.0,WeatherDisplay:10.37,2013-04-02 10:00:00,
2013-04-02 04:05:00,29.6,13.7,29.97,ENE,57,6.3,7.0,51,0.00,CLR,SCT,0.00,0.0,WeatherDisplay:10.37,2013-04-02 10:05:00,
2013-04-02 04:10:00,30.0,14.0,29.97,NE,54,2.8,8.1,51,0.00,CLR,SCT,0.00,0.0,WeatherDisplay:10.37,2013-04-02 10:10:00,
2013-04-02 04:15:00,30.1,13.7,29.97,NE,55,2.0,3.5,50,0.00,CLR,SCT,0.00,0.0,WeatherDisplay:10.37,2013-04-02 10:15:00,
2013-04-02 04:20:00,29.4,13.5,29.98,ENE,58,3.0,3.5,51,0.00,CLR,SCT,0.00,0.0,WeatherDisplay:10.37,2013-04-02 10:20:00,
2013-04-02 04:25:00,28.9,13.9,29.98,NE,56,5.9,7.0,53,0.00,CLR,SCT,0.00,0.0,WeatherDisplay:10.37,2013-04-02 10:25:00,
2013-04-02 04:30:00,30.2,15.1,29.98,ENE,65,6.2,9.2,53,0.00,CLR,SCT,0.00,0.0,WeatherDisplay:10.37,2013-04-02 10:30:00,
2013-04-02 04:35:00,30.9,14.9,29.98,ENE,69,1.0,2.0,51,0.00,CLR,SCT,0.00,0.0,WeatherDisplay:10.37,2013-04-02 10:35:00,
2013-04-02 04:40:00,30.5,14.5,29.98,ENE,69,1.2,3.5,51,0.00,CLR,SCT,0.00,0.0,WeatherDisplay:10.37,2013-04-02 10:40:00,
2013-04-02 04:45:00,30.0,14.5,29.98,NE,46,0.6,2.3,52,0.00,CLR,SCT,0.00,0.0,WeatherDisplay:10.37,2013-04-02 10:45:00,
2013-04-02 04:50:00,29.5,14.0,29.98,NE,46,0.0,1.0,52,0.00,CLR,SCT,0.00,0.0,WeatherDisplay:10.37,2013-04-02 10:50:00,
2013-04-02 04:55:00,29.0,14.0,29.98,NE,42,1.6,3.5,53,0.00,CLR,SCT,0.00,0.0,WeatherDisplay:10.37,2013-04-02 10:55:00,
2013-04-02 05:00:00,28.6,14.5,29.98,NE,53,4.0,5.0,55,0.00,CLR,SCT,0.00,0.0,WeatherDisplay:10.37,2013-04-02 11:00:00,
2013-04-02 05:05:00,28.2,14.5,29.98,NE,44,6.8,8.1,56,0.00,CLR,SCT,0.00,0.0,WeatherDisplay:10.37,2013-04-02 11:05:00,
2013-04-02 05:10:00,27.7,14.0,29.98,NE,45,2.7,5.8,56,0.00,CLR,SCT,0.00,0.0,WeatherDisplay:10.37,2013-04-02 11:10:00,
2013-04-02 05:15:00,27.4,14.1,29.97,NE,56,3.7,4.0,57,0.00,CLR,SCT,0.00,0.0,WeatherDisplay:10.37,2013-04-02 11:15:00,
2013-04-02 05:20:00,27.5,14.2,29.99,NE,49,6.6,8.1,57,0.00,CLR,SCT,0.00,0.0,WeatherDisplay:10.37,2013-04-02 11:20:00,
2013-04-02 05:25:00,28.6,14.9,29.99,ENE,64,1.2,3.5,56,0.00,CLR,SCT,0.00,0.0,WeatherDisplay:10.37,2013-04-02 11:25:00,
2013-04-02 05:30:00,28.9,14.7,29.99,NE,45,1.6,3.5,55,0.00,CLR,SCT,0.00,0.0,WeatherDisplay:10.37,2013-04-02 11:30:00,
2013-04-02 05:35:00,28.4,14.7,30.00,NE,42,4.1,5.0,56,0.00,CLR,SCT,0.00,0.0,WeatherDisplay:10.37,2013-04-02 11:35:00,
2013-04-02 05:40:00,27.4,14.1,30.00,NE,53,6.1,7.0,57,0.00,CLR,SCT,0.00,0.0,WeatherDisplay:10.37,2013-04-02 11:40:00,
2013-04-02 05:45:00,26.8,14.0,29.99,NE,44,3.7,5.8,58,0.00,CLR,SCT,0.00,0.0,WeatherDisplay:10.37,2013-04-02 11:45:00,
2013-04-02 05:50:00,26.8,14.8,29.99,NE,41,3.1,5.8,60,0.00,CLR,SCT,0.00,0.0,WeatherDisplay:10.37,2013-04-02 11:50:00,
2013-04-02 05:55:00,26.9,14.9,29.99,NE,53,5.2,7.0,60,0.00,CLR,SCT,0.00,0.0,WeatherDisplay:10.37,2013-04-02 11:55:00,
2013-04-02 06:00:00,27.2,15.1,29.99,NE,47,8.1,9.2,60,0.00,CLR,SCT,0.00,0.0,WeatherDisplay:10.37,2013-04-02 12:00:00,
2013-04-02 06:05:00,27.8,14.9,29.99,NE,47,6.2,7.0,58,0.00,CLR,SCT,0.00,0.0,WeatherDisplay:10.37,2013-04-02 12:05:00,
2013-04-02 06:10:00,27.6,14.7,29.99,NE,42,5.6,6.9,58,0.00,CLR,SCT,0.00,0.0,WeatherDisplay:10.37,2013-04-02 12:10:00,
2013-04-02 06:15:00,27.0,14.6,29.99,ENE,69,6.7,8.1,59,0.00,CLR,SCT,0.00,0.0,WeatherDisplay:10.37,2013-04-02 12:15:00,
2013-04-02 06:20:00,26.9,14.9,29.99,NE,39,3.9,4.6,60,0.00,CLR,SCT,0.00,0.0,WeatherDisplay:10.37,2013-04-02 12:20:00,
2013-04-02 06:25:00,26.9,14.9,29.99,NE,47,3.3,4.6,60,0.00,CLR,SCT,0.00,0.0,WeatherDisplay:10.37,2013-04-02 12:25:00,
2013-04-02 06:30:00,26.5,14.5,29.99,NE,38,2.9,4.6,60,0.00,CLR,SCT,0.00,0.0,WeatherDisplay:10.37,2013-04-02 12:30:00,
2013-04-02 06:35:00,26.2,14.2,29.99,NE,49,4.2,5.8,60,0.00,CLR,SCT,0.00,0.0,WeatherDisplay:10.37,2013-04-02 12:35:00,
2013-04-02 06:40:00,26.2,14.6,30.00,NE,48,4.1,5.0,61,0.00,CLR,SCT,0.00,0.0,WeatherDisplay:10.37,2013-04-02 12:40:00,
2013-04-02 06:45:00,26.6,15.3,30.00,NE,39,5.8,8.1,62,0.00,CLR,SCT,0.00,0.0,WeatherDisplay:10.37,2013-04-02 12:45:00,
2013-04-02 06:50:00,26.9,15.2,30.00,NE,51,6.3,7.0,61,0.00,CLR,SCT,0.00,0.0,WeatherDisplay:10.37,2013-04-02 12:50:00,
2013-04-02 06:55:00,27.0,15.3,30.00,NE,41,4.8,6.9,61,0.00,CLR,SCT,0.00,5.0,WeatherDisplay:10.37,2013-04-02 12:55:00,
2013-04-02 07:00:00,27.4,15.7,30.00,NE,39,5.0,6.0,61,0.00,CLR,SCT,0.00,7.0,WeatherDisplay:10.37,2013-04-02 13:00:00,
2013-04-02 07:05:00,27.8,15.7,30.00,NE,49,3.9,5.0,60,0.00,CLR,SCT,0.00,11.0,WeatherDisplay:10.37,2013-04-02 13:05:00,
2013-04-02 07:10:00,27.8,15.3,30.00,NE,38,1.2,3.5,59,0.00,CLR,SCT,0.00,12.0,WeatherDisplay:10.37,2013-04-02 13:10:00,
2013-04-02 07:15:00,27.8,16.1,30.00,NE,44,2.2,5.8,61,0.00,CLR,SCT,0.00,14.0,WeatherDisplay:10.37,2013-04-02 13:15:00,
2013-04-02 07:20:00,27.8,14.9,30.00,NNE,17,1.7,4.0,58,0.00,CLR,SCT,0.00,18.0,WeatherDisplay:10.37,2013-04-02 13:20:00,
2013-04-02 07:25:00,26.9,14.5,30.00,ENE,57,3.5,4.6,59,0.00,CLR,SCT,0.00,19.0,WeatherDisplay:10.37,2013-04-02 13:25:00,
2013-04-02 07:31:00,26.4,14.8,30.01,NE,43,3.6,6.0,61,0.00,CLR,SCT,0.00,21.0,WeatherDisplay:10.37,2013-04-02 13:31:00,
2013-04-02 07:36:00,26.6,15.3,30.01,NE,38,4.2,5.0,62,0.00,CLR,SCT,0.00,23.0,WeatherDisplay:10.37,2013-04-02 13:36:00,
2013-04-02 07:41:00,27.7,16.4,30.01,NE,43,4.8,6.0,62,0.00,CLR,SCT,0.00,72.0,WeatherDisplay:10.37,2013-04-02 13:41:00,
2013-04-02 07:46:00,29.2,17.0,30.01,NE,42,5.0,5.8,60,0.00,CLR,SCT,0.00,79.0,WeatherDisplay:10.37,2013-04-02 13:46:00,
2013-04-02 07:51:00,31.0,18.3,30.02,ENE,59,5.3,8.0,59,0.00,CLR,SCT,0.00,97.0,WeatherDisplay:10.37,2013-04-02 13:51:00,
2013-04-02 07:56:00,32.6,18.2,30.02,NE,54,5.5,8.1,55,0.00,CLR,SCT,0.00,125.0,WeatherDisplay:10.37,2013-04-02 13:56:00,
2013-04-02 08:01:00,33.6,19.1,30.02,NE,55,4.6,6.9,55,0.00,CLR,SCT,0.00,165.0,WeatherDisplay:10.37,2013-04-02 14:01:00,
2013-04-02 08:06:00,34.6,18.8,30.02,NE,49,3.2,4.0,52,0.00,CLR,SCT,0.00,195.0,WeatherDisplay:10.37,2013-04-02 14:06:00,
2013-04-02 08:11:00,35.7,17.9,30.02,NE,53,3.6,4.0,48,0.00,CLR,SCT,0.00,220.0,WeatherDisplay:10.37,2013-04-02 14:11:00,
2013-04-02 08:16:00,37.3,17.9,30.02,ENE,64,2.2,3.5,45,0.00,CLR,SCT,0.00,243.0,WeatherDisplay:10.37,2013-04-02 14:16:00,
2013-04-02 08:21:00,38.4,19.4,30.02,ENE,64,0.0,2.3,46,0.00,CLR,SCT,0.00,260.0,WeatherDisplay:10.37,2013-04-02 14:21:00,
2013-04-02 08:26:00,39.9,19.2,30.02,ENE,64,0.0,0.0,43,0.00,CLR,SCT,0.00,279.0,WeatherDisplay:10.37,2013-04-02 14:26:00,
2013-04-02 08:31:00,41.6,18.4,30.02,ENE,64,0.0,0.0,39,0.00,CLR,SCT,0.00,299.0,WeatherDisplay:10.37,2013-04-02 14:31:00,
2013-04-02 08:36:00,42.5,18.6,30.02,SSE,154,0.0,1.1,38,0.00,CLR,SCT,0.00,316.0,WeatherDisplay:10.37,2013-04-02 14:36:00,
2013-04-02 08:41:00,42.3,16.6,30.03,WSW,240,2.2,3.5,35,0.00,CLR,SCT,0.00,338.0,WeatherDisplay:10.37,2013-04-02 14:41:00,
2013-04-02 08:46:00,42.2,17.8,30.02,WSW,238,1.7,3.5,37,0.00,CLR,SCT,0.00,355.0,WeatherDisplay:10.37,2013-04-02 14:46:00,
2013-04-02 08:51:00,42.6,17.5,30.02,SW,236,2.9,4.0,36,0.00,CLR,SCT,0.00,376.0,WeatherDisplay:10.37,2013-04-02 14:51:00,
2013-04-02 08:56:00,42.6,17.5,30.02,WSW,248,1.3,3.5,36,0.00,CLR,SCT,0.00,392.0,WeatherDisplay:10.37,2013-04-02 14:56:00,
2013-04-02 09:01:00,43.0,17.8,30.02,WSW,249,1.8,3.5,36,0.00,CLR,SCT,0.00,411.0,WeatherDisplay:10.37,2013-04-02 15:01:00,
2013-04-02 09:06:00,43.4,18.2,30.02,West,261,1.2,3.5,36,0.00,CLR,SCT,0.00,431.0,WeatherDisplay:10.37,2013-04-02 15:06:00,
2013-04-02 09:11:00,43.5,18.3,30.02,West,271,1.7,4.0,36,0.00,CLR,SCT,0.00,446.0,WeatherDisplay:10.37,2013-04-02 15:11:00,
2013-04-02 09:16:00,44.1,18.2,30.02,SW,235,3.1,4.0,35,0.00,CLR,SCT,0.00,464.0,WeatherDisplay:10.37,2013-04-02 15:16:00,
2013-04-02 09:21:00,44.3,19.0,30.02,SW,219,1.5,4.0,36,0.00,CLR,SCT,0.00,483.0,WeatherDisplay:10.37,2013-04-02 15:21:00,
2013-04-02 09:26:00,45.7,19.6,30.02,WSW,244,2.7,4.0,35,0.00,CLR,SCT,0.00,503.0,WeatherDisplay:10.37,2013-04-02 15:26:00,
2013-04-02 09:31:00,45.5,20.7,30.02,WNW,294,2.0,3.5,37,0.00,CLR,SCT,0.00,515.0,WeatherDisplay:10.37,2013-04-02 15:31:00,
2013-04-02 09:36:00,45.5,20.1,30.02,West,269,1.4,3.5,36,0.00,CLR,SCT,0.00,536.0,WeatherDisplay:10.37,2013-04-02 15:36:00,
2013-04-02 09:41:00,46.0,20.5,30.02,SSW,211,1.5,3.5,36,0.00,CLR,SCT,0.00,554.0,WeatherDisplay:10.37,2013-04-02 15:41:00,
2013-04-02 09:46:00,46.7,20.5,30.02,NW,304,0.0,0.0,35,0.00,CLR,SCT,0.00,571.0,WeatherDisplay:10.37,2013-04-02 15:46:00,
2013-04-02 09:51:00,46.3,19.4,30.01,SW,214,3.8,6.9,34,0.00,CLR,SCT,0.00,575.0,WeatherDisplay:10.37,2013-04-02 15:51:00,
2013-04-02 09:57:00,46.0,20.5,30.02,WNW,294,3.0,5.0,36,0.00,CLR,SCT,0.00,606.0,WeatherDisplay:10.37,2013-04-02 15:57:00,
2013-04-02 10:02:00,46.9,20.6,30.02,SSW,201,0.8,4.6,35,0.00,CLR,SCT,0.00,621.0,WeatherDisplay:10.37,2013-04-02 16:02:00,
2013-04-02 10:08:00,47.7,21.3,30.02,WSW,240,2.9,5.0,35,0.00,CLR,SCT,0.00,642.0,WeatherDisplay:10.37,2013-04-02 16:08:00,
2013-04-02 10:13:00,47.1,20.8,30.02,WNW,293,4.1,6.0,35,0.00,CLR,SCT,0.00,656.0,WeatherDisplay:10.37,2013-04-02 16:13:00,
2013-04-02 10:18:00,47.4,21.1,30.02,WNW,284,1.9,4.0,35,0.00,CLR,SCT,0.00,670.0,WeatherDisplay:10.37,2013-04-02 16:18:00,
2013-04-02 10:23:00,48.0,20.9,30.01,West,270,5.4,10.4,34,0.00,CLR,SCT,0.00,687.0,WeatherDisplay:10.37,2013-04-02 16:23:00,
2013-04-02 10:28:00,47.9,20.8,30.01,WNW,300,4.0,6.9,34,0.00,CLR,SCT,0.00,701.0,WeatherDisplay:10.37,2013-04-02 16:28:00,
2013-04-02 10:34:00,48.1,21.0,30.01,WSW,248,4.6,8.0,34,0.00,CLR,SCT,0.00,717.0,WeatherDisplay:10.37,2013-04-02 16:34:00,
2013-04-02 10:39:00,48.1,21.0,30.01,WNW,289,3.1,4.6,34,0.00,CLR,SCT,0.00,729.0,WeatherDisplay:10.37,2013-04-02 16:39:00,
2013-04-02 10:44:00,48.5,19.9,30.01,West,281,3.3,8.1,32,0.00,CLR,SCT,0.00,745.0,WeatherDisplay:10.37,2013-04-02 16:44:00,
2013-04-02 10:49:00,49.3,19.9,30.01,SSW,210,6.0,9.2,31,0.00,CLR,SCT,0.00,758.0,WeatherDisplay:10.37,2013-04-02 16:49:00,
2013-04-02 10:54:00,49.2,20.6,30.00,SSW,198,5.0,7.0,32,0.00,CLR,SCT,0.00,772.0,WeatherDisplay:10.37,2013-04-02 16:54:00,
2013-04-02 10:59:00,49.2,20.6,30.01,WNW,282,5.7,8.1,32,0.00,CLR,SCT,0.00,784.0,WeatherDisplay:10.37,2013-04-02 16:59:00,
2013-04-02 11:04:00,49.0,21.8,30.00,WSW,242,6.0,11.0,34,0.00,CLR,SCT,0.00,798.0,WeatherDisplay:10.37,2013-04-02 17:04:00,
2013-04-02 11:09:00,49.5,20.1,30.00,SSW,212,4.7,6.0,31,0.00,CLR,SCT,0.00,809.0,WeatherDisplay:10.37,2013-04-02 17:09:00,
2013-04-02 11:14:00,49.6,19.4,30.00,WSW,240,6.4,10.4,30,0.00,CLR,SCT,0.00,821.0,WeatherDisplay:10.37,2013-04-02 17:14:00,
2013-04-02 11:19:00,49.7,20.2,30.00,WSW,257,0.9,8.1,31,0.00,CLR,SCT,0.00,833.0,WeatherDisplay:10.37,2013-04-02 17:19:00,
2013-04-02 11:24:00,50.1,20.6,30.00,West,269,3.4,7.0,31,0.00,CLR,SCT,0.00,844.0,WeatherDisplay:10.37,2013-04-02 17:24:00,
2013-04-02 11:29:00,50.8,20.4,30.00,West,279,10.0,13.8,30,0.00,CLR,SCT,0.00,858.0,WeatherDisplay:10.37,2013-04-02 17:29:00,
2013-04-02 11:34:00,50.5,20.2,30.00,SW,214,3.4,6.9,30,0.00,CLR,SCT,0.00,868.0,WeatherDisplay:10.37,2013-04-02 17:34:00,
2013-04-02 11:39:00,51.1,21.5,30.00,SSW,210,9.8,14.0,31,0.00,CLR,SCT,0.00,907.0,WeatherDisplay:10.37,2013-04-02 17:39:00,
2013-04-02 11:44:00,51.3,20.1,30.00,South,188,8.8,17.3,29,0.00,CLR,SCT,0.00,911.0,WeatherDisplay:10.37,2013-04-02 17:44:00,
2013-04-02 11:50:00,51.3,20.1,30.00,SSW,198,6.3,14.0,29,0.00,CLR,SCT,0.00,954.0,WeatherDisplay:10.37,2013-04-02 17:50:00,
2013-04-02 11:55:00,51.5,20.2,29.99,WSW,239,7.8,15.0,29,0.00,CLR,SCT,0.00,965.0,WeatherDisplay:10.37,2013-04-02 17:55:00,
2013-04-02 12:00:00,51.6,19.5,29.99,WNW,288,5.4,9.2,28,0.00,CLR,SCT,0.00,155.0,WeatherDisplay:10.37,2013-04-02 18:00:00,
2013-04-02 12:05:00,51.2,17.4,30.00,SW,223,3.9,6.9,26,0.00,SCT,,0.00,1055.0,WeatherDisplay:10.37,2013-04-02 18:05:00,
2013-04-02 12:10:00,51.0,17.3,29.99,SW,215,3.2,6.9,26,0.00,SCT,,0.00,169.0,WeatherDisplay:10.37,2013-04-02 18:10:00,
2013-04-02 12:15:00,51.5,21.0,29.99,SW,229,10.5,16.1,30,0.00,SCT,,0.00,1049.0,WeatherDisplay:10.37,2013-04-02 18:15:00,
2013-04-02 12:21:00,52.4,20.2,29.99,SW,225,9.4,11.5,28,0.00,SCT,,0.00,1067.0,WeatherDisplay:10.37,2013-04-02 18:21:00,
2013-04-02 12:27:00,52.2,19.2,29.98,SW,229,9.8,14.0,27,0.00,SCT,,0.00,1051.0,WeatherDisplay:10.37,2013-04-02 18:27:00,
2013-04-02 12:32:00,53.8,19.7,29.98,WSW,241,9.1,15.0,26,0.00,SCT,,0.00,1074.0,WeatherDisplay:10.37,2013-04-02 18:32:00,
2013-04-02 12:38:00,52.6,17.7,29.98,WSW,250,6.2,8.1,25,0.00,SCT,,0.00,1104.0,WeatherDisplay:10.37,2013-04-02 18:38:00,
2013-04-02 12:43:00,51.5,17.7,29.98,WSW,250,12.5,16.1,26,0.00,SCT,,0.00,216.0,WeatherDisplay:10.37,2013-04-02 18:43:00,
2013-04-02 12:49:00,50.5,17.7,29.98,West,273,5.3,9.2,27,0.00,SCT,,0.00,253.0,WeatherDisplay:10.37,2013-04-02 18:49:00,
2013-04-02 12:54:00,50.9,18.1,29.98,NW,315,6.3,10.4,27,0.00,SCT,,0.00,320.0,WeatherDisplay:10.37,2013-04-02 18:54:00,
2013-04-02 12:59:00,51.0,18.1,29.97,WSW,254,6.4,9.2,27,0.00,SCT,,0.00,294.0,WeatherDisplay:10.37,2013-04-02 18:59:00,
2013-04-02 13:04:00,52.8,17.9,29.96,SW,234,7.3,10.4,25,0.00,FEW,SCT,0.00,1078.0,WeatherDisplay:10.37,2013-04-02 19:04:00,
2013-04-02 13:09:00,54.2,17.1,29.96,South,185,7.2,16.1,23,0.00,FEW,SCT,0.00,1116.0,WeatherDisplay:10.37,2013-04-02 19:09:00,
2013-04-02 13:14:00,54.2,17.1,29.96,SW,217,12.6,17.3,23,0.00,FEW,SCT,0.00,1121.0,WeatherDisplay:10.37,2013-04-02 19:14:00,
2013-04-02 13:19:00,54.0,16.0,29.95,WSW,245,7.4,12.7,22,0.00,FEW,SCT,0.00,1121.0,WeatherDisplay:10.37,2013-04-02 19:19:00,
2013-04-02 13:25:00,53.8,17.8,29.96,WNW,303,7.1,17.3,24,0.00,FEW,SCT,0.00,1127.0,WeatherDisplay:10.37,2013-04-02 19:25:00,
2013-04-02 13:30:00,54.4,18.3,29.95,WSW,258,11.7,17.3,24,0.00,FEW,SCT,0.00,1188.0,WeatherDisplay:10.37,2013-04-02 19:30:00,
2013-04-02 13:35:00,53.7,16.7,29.96,SW,216,9.9,14.0,23,0.00,BKN,SCT,0.00,322.0,WeatherDisplay:10.37,2013-04-02 19:35:00,
2013-04-02 13:40:00,52.4,16.6,29.95,SW,223,8.7,12.7,24,0.00,BKN,SCT,0.00,315.0,WeatherDisplay:10.37,2013-04-02 19:40:00,
2013-04-02 13:46:00,52.1,17.3,29.95,WSW,258,6.4,8.1,25,0.00,BKN,SCT,0.00,654.0,WeatherDisplay:10.37,2013-04-02 19:46:00,
2013-04-02 13:51:00,52.7,16.9,29.95,West,278,5.0,8.1,24,0.00,BKN,SCT,0.00,336.0,WeatherDisplay:10.37,2013-04-02 19:51:00,
2013-04-02 13:56:00,51.9,17.1,29.95,SSW,210,6.2,9.2,25,0.00,BKN,SCT,0.00,339.0,WeatherDisplay:10.37,2013-04-02 19:56:00,
2013-04-02 14:02:00,51.8,16.1,29.95,West,271,6.5,9.0,24,0.00,OVC,SCT,0.00,313.0,WeatherDisplay:10.37,2013-04-02 20:02:00,
2013-04-02 14:07:00,52.9,15.0,29.95,SW,235,10.8,12.7,22,0.00,OVC,SCT,0.00,874.0,WeatherDisplay:10.37,2013-04-02 20:07:00,
2013-04-02 14:12:00,53.6,15.6,29.94,WSW,249,7.8,12.7,22,0.00,OVC,SCT,0.00,1072.0,WeatherDisplay:10.37,2013-04-02 20:12:00,
2013-04-02 14:17:00,54.3,16.2,29.94,WSW,250,4.2,6.9,22,0.00,OVC,SCT,0.00,1071.0,WeatherDisplay:10.37,2013-04-02 20:17:00,
2013-04-02 14:22:00,55.3,18.1,29.95,West,264,20.2,25.3,23,0.00,OVC,SCT,0.00,1000.0,WeatherDisplay:10.37,2013-04-02 20:22:00,
2013-04-02 14:27:00,53.4,17.5,29.95,WSW,252,15.4,20.7,24,0.00,OVC,SCT,0.00,323.0,WeatherDisplay:10.37,2013-04-02 20:27:00,
2013-04-02 14:32:00,52.2,17.4,29.95,West,265,14.8,18.4,25,0.00,OVC,SCT,0.00,309.0,WeatherDisplay:10.37,2013-04-02 20:32:00,
2013-04-02 14:37:00,52.1,17.3,29.95,West,259,12.2,16.1,25,0.00,OVC,SCT,0.00,292.0,WeatherDisplay:10.37,2013-04-02 20:37:00,
2013-04-02 14:42:00,51.4,17.6,29.95,West,266,16.3,21.9,26,0.00,OVC,SCT,0.00,285.0,WeatherDisplay:10.37,2013-04-02 20:42:00,
2013-04-02 14:47:00,51.4,18.5,29.95,WSW,258,13.9,18.4,27,0.00,OVC,SCT,0.00,285.0,WeatherDisplay:10.37,2013-04-02 20:47:00,
2013-04-02 14:52:00,51.2,20.0,29.95,SW,233,13.3,20.7,29,0.00,OVC,SCT,0.00,272.0,WeatherDisplay:10.37,2013-04-02 20:52:00,
2013-04-02 14:58:00,50.7,18.7,29.96,SW,236,15.7,19.6,28,0.00,OVC,SCT,0.00,258.0,WeatherDisplay:10.37,2013-04-02 20:58:00,
2013-04-02 15:03:00,50.6,16.0,29.96,WSW,244,13.8,19.6,25,0.00,BKN,SCT,0.00,229.0,WeatherDisplay:10.37,2013-04-02 21:03:00,
2013-04-02 15:08:00,50.5,15.9,29.94,SSW,205,9.5,13.8,25,0.00,BKN,SCT,0.00,190.0,WeatherDisplay:10.37,2013-04-02 21:08:00,
2013-04-02 15:13:00,50.1,16.5,29.94,West,259,18.3,23.0,26,0.00,BKN,SCT,0.00,155.0,WeatherDisplay:10.37,2013-04-02 21:13:00,
2013-04-02 15:18:00,49.4,16.8,29.95,WSW,258,18.4,21.9,27,0.00,BKN,SCT,0.00,132.0,WeatherDisplay:10.37,2013-04-02 21:18:00,
2013-04-02 15:23:00,49.1,15.6,29.95,WSW,237,10.3,19.6,26,0.00,BKN,SCT,0.00,120.0,WeatherDisplay:10.37,2013-04-02 21:23:00,
2013-04-02 15:29:00,49.1,15.6,29.95,South,190,8.7,13.0,26,0.00,BKN,SCT,0.00,120.0,WeatherDisplay:10.37,2013-04-02 21:29:00,
2013-04-02 15:34:00,48.6,16.9,29.95,SSW,200,1.2,6.9,28,0.00,BKN,SCT,0.00,125.0,WeatherDisplay:10.37,2013-04-02 21:34:00,
2013-04-02 15:39:00,48.5,18.4,29.95,SSW,206,8.0,16.1,30,0.00,BKN,SCT,0.00,127.0,WeatherDisplay:10.37,2013-04-02 21:39:00,
2013-04-02 15:44:00,48.5,19.9,29.96,SSW,200,14.5,18.0,32,0.00,BKN,SCT,0.00,130.0,WeatherDisplay:10.37,2013-04-02 21:44:00,
2013-04-02 15:49:00,47.7,21.3,29.96,SSW,198,9.6,12.0,35,0.00,BKN,SCT,0.00,114.0,WeatherDisplay:10.37,2013-04-02 21:49:00,
2013-04-02 15:54:00,47.3,20.3,29.96,SE,130,5.7,9.2,34,0.00,BKN,SCT,0.00,107.0,WeatherDisplay:10.37,2013-04-02 21:54:00,
2013-04-02 15:59:00,47.4,19.7,29.95,ENE,62,1.6,5.0,33,0.00,BKN,SCT,0.00,135.0,WeatherDisplay:10.37,2013-04-02 21:59:00,
2013-04-02 16:04:00,47.8,20.1,29.95,South,191,3.1,11.5,33,0.00,CLR,SCT,0.00,192.0,WeatherDisplay:10.37,2013-04-02 22:04:00,
2013-04-02 16:09:00,48.6,19.3,29.95,East,84,3.1,8.0,31,0.00,CLR,SCT,0.00,276.0,WeatherDisplay:10.37,2013-04-02 22:09:00,
2013-04-02 16:14:00,48.9,18.8,29.95,East,80,2.5,4.6,30,0.00,CLR,SCT,0.00,213.0,WeatherDisplay:10.37,2013-04-02 22:14:00,
2013-04-02 16:19:00,49.2,19.8,29.95,NE,40,6.6,10.4,31,0.00,CLR,SCT,0.00,178.0,WeatherDisplay:10.37,2013-04-02 22:19:00,
2013-04-02 16:24:00,48.7,19.4,29.95,NE,40,7.5,11.5,31,0.00,CLR,SCT,0.00,149.0,WeatherDisplay:10.37,2013-04-02 22:24:00,
2013-04-02 16:29:00,48.6,19.3,29.95,NNE,23,5.4,8.1,31,0.00,CLR,SCT,0.00,155.0,WeatherDisplay:10.37,2013-04-02 22:29:00,
2013-04-02 16:34:00,48.5,19.2,29.95,ENE,65,4.0,5.0,31,0.00,CLR,SCT,0.00,185.0,WeatherDisplay:10.37,2013-04-02 22:34:00,
2013-04-02 16:39:00,48.8,20.2,29.95,NNE,14,11.4,15.0,32,0.00,CLR,SCT,0.00,202.0,WeatherDisplay:10.37,2013-04-02 22:39:00,
2013-04-02 16:44:00,48.6,22.1,29.96,NE,48,10.5,16.1,35,0.00,CLR,SCT,0.00,178.0,WeatherDisplay:10.37,2013-04-02 22:44:00,
2013-04-02 16:49:00,48.2,22.5,29.96,NNE,24,8.3,14.0,36,0.00,CLR,SCT,0.00,181.0,WeatherDisplay:10.37,2013-04-02 22:49:00,
2013-04-02 16:54:00,48.0,22.3,29.97,NNE,32,7.7,13.8,36,0.00,CLR,SCT,0.00,227.0,WeatherDisplay:10.37,2013-04-02 22:54:00,
2013-04-02 16:59:00,48.1,23.0,29.96,NE,42,9.6,12.7,37,0.00,CLR,SCT,0.00,211.0,WeatherDisplay:10.37,2013-04-02 22:59:00,
2013-04-02 17:04:00,48.3,23.2,29.96,NE,43,8.2,11.5,37,0.00,BKN,SCT,0.00,186.0,WeatherDisplay:10.37,2013-04-02 23:04:00,
2013-04-02 17:09:00,48.1,21.7,29.95,East,98,2.2,11.5,35,0.00,BKN,SCT,0.00,158.0,WeatherDisplay:10.37,2013-04-02 23:09:00,
2013-04-02 17:14:00,47.9,22.2,29.95,SE,139,1.3,3.5,36,0.00,BKN,SCT,0.00,125.0,WeatherDisplay:10.37,2013-04-02 23:14:00,
2013-04-02 17:19:00,48.1,22.4,29.96,West,275,1.2,2.3,36,0.00,BKN,SCT,0.00,88.0,WeatherDisplay:10.37,2013-04-02 23:19:00,
2013-04-02 17:24:00,48.4,21.3,29.96,WNW,287,9.6,13.8,34,0.00,BKN,SCT,0.00,77.0,WeatherDisplay:10.37,2013-04-02 23:24:00,
2013-04-02 17:29:00,47.3,25.3,29.98,WSW,253,12.0,23.0,42,0.00,BKN,SCT,0.00,79.0,WeatherDisplay:10.37,2013-04-02 23:29:00,
2013-04-02 17:34:00,45.7,27.1,29.99,NW,316,11.6,16.1,48,0.00,BKN,SCT,0.00,90.0,WeatherDisplay:10.37,2013-04-02 23:34:00,
2013-04-02 17:39:00,45.1,26.6,29.98,NNW,345,4.1,12.7,48,0.00,BKN,SCT,0.00,137.0,WeatherDisplay:10.37,2013-04-02 23:39:00,
2013-04-02 17:44:00,45.5,26.9,29.98,WNW,290,6.1,10.4,48,0.00,BKN,SCT,0.00,134.0,WeatherDisplay:10.37,2013-04-02 23:44:00,
2013-04-02 17:49:00,46.1,25.4,29.98,WNW,290,9.7,15.0,44,0.00,OVC,SCT,0.00,125.0,WeatherDisplay:10.37,2013-04-02 23:49:00,
2013-04-02 17:54:00,46.1,25.9,29.99,WNW,290,10.7,17.3,45,0.00,OVC,SCT,0.00,130.0,WeatherDisplay:10.37,2013-04-02 23:54:00,
2013-04-02 17:59:00,45.9,26.3,29.99,NW,309,7.6,11.5,46,0.00,OVC,SCT,0.00,155.0,WeatherDisplay:10.37,2013-04-02 23:59:00,
2013-04-02 18:04:00,46.0,25.8,29.97,WNW,287,4.5,6.9,45,0.00,BKN,SCT,0.00,213.0,WeatherDisplay:10.37,2013-04-03 00:04:00,
2013-04-02 18:09:00,46.1,26.4,29.97,NW,313,2.2,6.9,46,0.00,BKN,SCT,0.00,125.0,WeatherDisplay:10.37,2013-04-03 00:09:00,
2013-04-02 18:14:00,46.6,25.8,29.97,WNW,301,3.5,6.9,44,0.00,BKN,SCT,0.00,151.0,WeatherDisplay:10.37,2013-04-03 00:14:00,
2013-04-02 18:19:00,47.7,25.7,29.97,NW,313,8.7,11.0,42,0.00,BKN,SCT,0.00,288.0,WeatherDisplay:10.37,2013-04-03 00:19:00,
2013-04-02 18:24:00,48.6,25.3,29.97,WNW,288,8.0,11.5,40,0.00,BKN,SCT,0.00,151.0,WeatherDisplay:10.37,2013-04-03 00:24:00,
2013-04-02 18:29:00,47.9,24.1,29.97,WNW,294,5.6,9.2,39,0.00,BKN,SCT,0.00,91.0,WeatherDisplay:10.37,2013-04-03 00:29:00,
2013-04-02 18:34:00,47.2,23.5,29.97,WNW,297,5.8,9.2,39,0.00,BKN,SCT,0.00,76.0,WeatherDisplay:10.37,2013-04-03 00:34:00,
2013-04-02 18:39:00,46.8,23.7,29.98,WNW,283,8.6,11.5,40,0.00,BKN,SCT,0.00,54.0,WeatherDisplay:10.37,2013-04-03 00:39:00,
2013-04-02 18:44:00,46.5,23.4,29.98,WNW,286,10.6,15.0,40,0.00,BKN,SCT,0.00,42.0,WeatherDisplay:10.37,2013-04-03 00:44:00,
2013-04-02 18:50:00,46.1,24.3,29.99,WNW,287,9.3,15.0,42,0.00,BKN,SCT,0.00,35.0,WeatherDisplay:10.37,2013-04-03 00:50:00,
2013-04-02 18:55:00,45.2,26.1,30.00,WNW,288,14.4,16.1,47,0.00,BKN,SCT,0.00,30.0,WeatherDisplay:10.37,2013-04-03 00:55:00,
2013-04-02 19:00:00,43.4,27.8,30.00,West,275,13.2,16.1,54,0.00,BKN,SCT,0.00,23.0,WeatherDisplay:10.37,2013-04-03 01:00:00,
2013-04-02 19:05:00,42.3,28.6,30.01,West,261,8.8,13.8,58,0.00,OVC,SCT,0.00,19.0,WeatherDisplay:10.37,2013-04-03 01:05:00,
2013-04-02 19:10:00,41.8,28.5,30.00,West,264,6.5,11.5,59,0.00,OVC,SCT,0.00,16.0,WeatherDisplay:10.37,2013-04-03 01:10:00,
2013-04-02 19:15:00,41.4,28.5,30.00,WSW,252,4.8,6.9,60,0.00,OVC,SCT,0.00,12.0,WeatherDisplay:10.37,2013-04-03 01:15:00,
2013-04-02 19:20:00,41.1,28.7,30.00,WSW,248,3.0,4.6,61,0.00,OVC,SCT,0.00,9.0,WeatherDisplay:10.37,2013-04-03 01:20:00,
2013-04-02 19:25:00,40.7,28.3,30.00,WSW,243,2.4,4.6,61,0.00,OVC,SCT,0.00,7.0,WeatherDisplay:10.37,2013-04-03 01:25:00,
2013-04-02 19:30:00,40.6,28.2,30.00,West,259,3.6,5.8,61,0.00,OVC,SCT,0.00,5.0,WeatherDisplay:10.37,2013-04-03 01:30:00,
2013-04-02 19:35:00,40.9,28.1,30.00,West,278,0.0,1.1,60,0.00,OVC,SCT,0.00,0.0,WeatherDisplay:10.37,2013-04-03 01:35:00,
2013-04-02 19:40:00,40.7,27.9,30.00,West,278,0.0,0.0,60,0.00,OVC,SCT,0.00,0.0,WeatherDisplay:10.37,2013-04-03 01:40:00,
2013-04-02 19:45:00,40.0,26.8,30.00,West,278,0.0,0.0,59,0.00,OVC,SCT,0.00,0.0,WeatherDisplay:10.37,2013-04-03 01:45:00,
2013-04-02 19:50:00,39.1,27.6,30.00,SSE,151,3.8,4.6,63,0.00,OVC,SCT,0.00,0.0,WeatherDisplay:10.37,2013-04-03 01:50:00,
2013-04-02 19:55:00,39.4,27.8,30.00,SE,141,5.9,7.0,63,0.00,OVC,SCT,0.00,0.0,WeatherDisplay:10.37,2013-04-03 01:55:00,
2013-04-02 20:00:00,39.3,27.7,30.00,SE,128,5.6,7.0,63,0.00,OVC,SCT,0.00,0.0,WeatherDisplay:10.37,2013-04-03 02:00:00,
2013-04-02 20:05:00,39.1,27.6,29.99,SE,144,3.6,6.0,63,0.00,CLR,SCT,0.00,0.0,WeatherDisplay:10.37,2013-04-03 02:05:00,
2013-04-02 20:10:00,39.0,27.5,29.99,WSW,250,2.8,3.5,63,0.00,CLR,SCT,0.00,0.0,WeatherDisplay:10.37,2013-04-03 02:10:00,
2013-04-02 20:15:00,39.7,27.7,29.99,SSE,166,0.0,0.0,62,0.00,CLR,SCT,0.00,0.0,WeatherDisplay:10.37,2013-04-03 02:15:00,
2013-04-02 20:20:00,39.3,27.0,30.00,NE,51,0.0,0.0,61,0.00,CLR,SCT,0.00,0.0,WeatherDisplay:10.37,2013-04-03 02:20:00,
2013-04-02 20:26:00,39.0,27.1,30.00,South,172,0.1,2.3,62,0.00,CLR,SCT,0.00,0.0,WeatherDisplay:10.37,2013-04-03 02:26:00,
2013-04-02 20:32:00,38.3,26.4,30.00,NE,51,1.0,2.3,62,0.00,CLR,SCT,0.00,0.0,WeatherDisplay:10.37,2013-04-03 02:32:00,
2013-04-02 20:37:00,37.6,26.5,30.00,ESE,103,0.7,2.0,64,0.00,CLR,SCT,0.00,0.0,WeatherDisplay:10.37,2013-04-03 02:37:00,
2013-04-02 20:42:00,37.5,26.8,30.00,SE,135,4.8,6.0,65,0.00,CLR,SCT,0.00,0.0,WeatherDisplay:10.37,2013-04-03 02:42:00,
2013-04-02 20:47:00,37.4,26.3,30.00,SE,136,5.5,6.0,64,0.00,CLR,SCT,0.00,0.0,WeatherDisplay:10.37,2013-04-03 02:47:00,
2013-04-02 20:52:00,37.2,26.1,30.01,SE,130,5.5,7.0,64,0.00,CLR,SCT,0.00,0.0,WeatherDisplay:10.37,2013-04-03 02:52:00,
2013-04-02 20:57:00,37.1,26.4,30.01,SE,133,2.6,3.5,65,0.00,CLR,SCT,0.00,0.0,WeatherDisplay:10.37,2013-04-03 02:57:00,
2013-04-02 21:02:00,36.9,26.2,30.00,SE,132,2.6,3.5,65,0.00,CLR,SCT,0.00,0.0,WeatherDisplay:10.37,2013-04-03 03:02:00,
2013-04-02 21:08:00,35.9,24.5,30.00,NE,56,2.4,3.5,63,0.00,CLR,SCT,0.00,0.0,WeatherDisplay:10.37,2013-04-03 03:08:00,
2013-04-02 21:13:00,34.6,24.4,30.01,NE,56,0.7,1.1,66,0.00,CLR,SCT,0.00,0.0,WeatherDisplay:10.37,2013-04-03 03:13:00,
2013-04-02 21:18:00,33.7,24.6,30.01,ENE,62,0.0,1.1,69,0.00,CLR,SCT,0.00,0.0,WeatherDisplay:10.37,2013-04-03 03:18:00,
2013-04-02 21:23:00,34.2,26.1,30.01,SE,129,4.0,5.8,72,0.00,CLR,SCT,0.00,0.0,WeatherDisplay:10.37,2013-04-03 03:23:00,
2013-04-02 21:28:00,33.9,24.4,30.02,ENE,76,0.8,3.5,68,0.00,CLR,SCT,0.00,0.0,WeatherDisplay:10.37,2013-04-03 03:28:00,
2013-04-02 21:34:00,32.9,23.5,30.02,NE,47,2.2,5.0,68,0.00,CLR,SCT,0.00,0.0,WeatherDisplay:10.37,2013-04-03 03:34:00,
2013-04-02 21:39:00,32.1,23.8,30.02,NE,44,0.9,3.5,71,0.00,CLR,SCT,0.00,0.0,WeatherDisplay:10.37,2013-04-03 03:39:00,
2013-04-02 21:44:00,31.8,23.8,30.02,ENE,78,0.5,2.3,72,0.00,CLR,SCT,0.00,0.0,WeatherDisplay:10.37,2013-04-03 03:44:00,
2013-04-02 21:49:00,31.4,23.7,30.02,NE,55,0.9,2.3,73,0.00,CLR,SCT,0.00,0.0,WeatherDisplay:10.37,2013-04-03 03:49:00,
2013-04-02 21:54:00,31.1,23.8,30.02,NE,55,1.1,3.5,74,0.00,CLR,SCT,0.00,0.0,WeatherDisplay:10.37,2013-04-03 03:54:00,
2013-04-02 21:59:00,30.9,24.2,30.03,NE,54,0.2,3.5,76,0.00,CLR,SCT,0.00,0.0,WeatherDisplay:10.37,2013-04-03 03:59:00,
2013-04-02 22:00:00,31.0,24.3,30.03,NE,54,0.2,2.3,76,0.00,CLR,SCT,0.00,0.0,WeatherDisplay:10.37,2013-04-03 04:00:00,
2013-04-02 22:03:00,31.1,24.4,30.03,ESE,121,0.2,4.0,76,0.00,CLR,SCT,0.00,0.0,WeatherDisplay:10.37,2013-04-03 04:03:00,
2013-04-02 22:04:00,31.2,24.5,30.03,ESE,121,3.1,5.0,76,0.00,CLR,SCT,0.00,0.0,WeatherDisplay:10.37,2013-04-03 04:04:00,
2013-04-02 22:09:00,33.1,25.7,30.03,NE,46,1.7,6.9,74,0.00,CLR,SCT,0.00,0.0,WeatherDisplay:10.37,2013-04-03 04:09:00,
2013-04-02 22:14:00,32.5,24.1,30.03,ENE,61,3.8,5.8,71,0.00,CLR,SCT,0.00,0.0,WeatherDisplay:10.37,2013-04-03 04:14:00,
2013-04-02 22:19:00,32.1,25.1,30.04,East,93,0.0,1.1,75,0.00,CLR,SCT,0.00,0.0,WeatherDisplay:10.37,2013-04-03 04:19:00,
2013-04-02 22:24:00,32.5,24.8,30.04,ENE,70,3.6,5.0,73,0.00,CLR,SCT,0.00,0.0,WeatherDisplay:10.37,2013-04-03 04:24:00,
2013-04-02 22:29:00,32.5,25.5,30.03,NE,56,1.5,3.0,75,0.00,CLR,SCT,0.00,0.0,WeatherDisplay:10.37,2013-04-03 04:29:00,
2013-04-02 22:34:00,32.3,24.9,30.04,ENE,57,0.2,3.5,74,0.00,CLR,SCT,0.00,0.0,WeatherDisplay:10.37,2013-04-03 04:34:00,
2013-04-02 22:39:00,32.1,25.1,30.04,ENE,59,0.4,2.3,75,0.00,CLR,SCT,0.00,0.0,WeatherDisplay:10.37,2013-04-03 04:39:00,
2013-04-02 22:44:00,32.1,24.7,30.04,ENE,59,0.0,0.0,74,0.00,CLR,SCT,0.00,0.0,WeatherDisplay:10.37,2013-04-03 04:44:00,
2013-04-02 22:49:00,31.8,24.5,30.04,ENE,57,2.9,4.6,74,0.00,CLR,SCT,0.00,0.0,WeatherDisplay:10.37,2013-04-03 04:49:00,
2013-04-02 22:54:00,31.6,24.6,30.04,ENE,57,0.0,1.1,75,0.00,CLR,SCT,0.00,0.0,WeatherDisplay:10.37,2013-04-03 04:54:00,
2013-04-02 22:59:00,31.0,24.0,30.04,NE,55,1.3,3.5,75,0.00,CLR,SCT,0.00,0.0,WeatherDisplay:10.37,2013-04-03 04:59:00,
2013-04-02 23:04:00,30.5,23.8,30.03,NE,50,0.1,2.0,76,0.00,CLR,SCT,0.00,0.0,WeatherDisplay:10.37,2013-04-03 05:04:00,
2013-04-02 23:09:00,30.2,23.5,30.03,NE,50,3.2,4.6,76,0.00,CLR,SCT,0.00,0.0,WeatherDisplay:10.37,2013-04-03 05:09:00,
2013-04-02 23:14:00,30.1,23.8,30.03,NE,53,2.0,4.6,77,0.00,CLR,SCT,0.00,0.0,WeatherDisplay:10.37,2013-04-03 05:14:00,
2013-04-02 23:19:00,30.4,24.1,30.03,NE,53,1.3,3.5,77,0.00,CLR,SCT,0.00,0.0,WeatherDisplay:10.37,2013-04-03 05:19:00,
2013-04-02 23:24:00,31.2,24.5,30.04,NE,56,0.8,3.5,76,0.00,CLR,SCT,0.00,0.0,WeatherDisplay:10.37,2013-04-03 05:24:00,
2013-04-02 23:29:00,32.4,25.0,30.04,ENE,61,2.0,3.5,74,0.00,CLR,SCT,0.00,0.0,WeatherDisplay:10.37,2013-04-03 05:29:00,
2013-04-02 23:34:00,32.2,23.5,30.05,NE,46,2.7,3.5,70,0.00,CLR,SCT,0.00,0.0,WeatherDisplay:10.37,2013-04-03 05:34:00,
2013-04-02 23:39:00,30.7,22.4,30.03,NE,47,5.2,6.9,71,0.00,CLR,SCT,0.00,0.0,WeatherDisplay:10.37,2013-04-03 05:39:00,
2013-04-02 23:44:00,29.5,22.2,30.03,NE,53,5.1,6.9,74,0.00,CLR,SCT,0.00,0.0,WeatherDisplay:10.37,2013-04-03 05:44:00,
2013-04-02 23:49:00,29.2,22.9,30.03,ENE,62,2.7,3.5,77,0.00,CLR,SCT,0.00,0.0,WeatherDisplay:10.37,2013-04-03 05:49:00,
2013-04-02 23:54:00,29.2,23.2,30.03,ENE,62,2.4,3.5,78,0.00,CLR,SCT,0.00,0.0,WeatherDisplay:10.37,2013-04-03 05:54:00,
2013-04-02 23:59:00,30.0,23.7,30.04,NE,52,1.0,4.0,77,0.00,CLR,SCT,0.00,0.0,WeatherDisplay:10.37,2013-04-03 05:59:00,